createdAt,value
2023-04-22T00:00:43.169Z,8.24
2023-04-22T00:03:15.960Z,8.18
2023-04-22T00:05:49.449Z,8.19
2023-04-22T00:08:22.914Z,8.18
2023-04-22T00:10:55.480Z,8.14
2023-04-22T00:13:28.276Z,8.10
2023-04-22T00:16:01.879Z,8.10
2023-04-22T00:18:36.334Z,8.10
2023-04-22T00:21:10.579Z,8.09
2023-04-22T00:23:45.672Z,8.10
2023-04-22T00:26:19.533Z,8.08
2023-04-22T00:29:01.100Z,8.08
2023-04-22T00:31:34.032Z,8.08
2023-04-22T00:34:07.129Z,8.05
2023-04-22T00:36:39.884Z,8.01
2023-04-22T00:39:12.570Z,7.97
2023-04-22T00:41:45.582Z,7.91
2023-04-22T00:44:19.017Z,7.88
2023-04-22T00:46:52.900Z,7.82
2023-04-22T00:49:26.923Z,7.77
2023-04-22T00:51:59.466Z,7.76
2023-04-22T00:54:33.557Z,7.71
2023-04-22T00:57:07.176Z,7.64
2023-04-22T00:59:40.765Z,7.63
2023-04-22T01:02:13.742Z,7.60
2023-04-22T01:04:47.009Z,7.61
2023-04-22T01:07:19.560Z,7.60
2023-04-22T01:09:53.476Z,7.56
2023-04-22T01:12:23.996Z,7.51
2023-04-22T01:14:57.212Z,7.44
2023-04-22T01:17:29.754Z,7.45
2023-04-22T01:20:04.601Z,7.42
2023-04-22T01:22:42.529Z,7.40
2023-04-22T01:25:15.733Z,7.36
2023-04-22T01:27:48.460Z,7.31
2023-04-22T01:30:21.672Z,7.25
2023-04-22T01:32:56.625Z,7.29
2023-04-22T01:35:31.092Z,7.31
2023-04-22T01:38:03.751Z,7.37
2023-04-22T01:40:37.205Z,7.34
2023-04-22T01:43:08.058Z,7.33
2023-04-22T01:45:41.057Z,7.21
2023-04-22T01:48:13.578Z,7.20
2023-04-22T01:50:46.252Z,7.21
2023-04-22T01:53:19.502Z,7.11
2023-04-22T01:55:52.133Z,7.02
2023-04-22T01:58:24.771Z,7.05
2023-04-22T02:00:57.798Z,7.10
2023-04-22T02:03:30.555Z,7.19
2023-04-22T02:06:03.493Z,7.18
2023-04-22T02:08:37.032Z,7.11
2023-04-22T02:11:10.441Z,7.10
2023-04-22T02:13:43.582Z,7.04
2023-04-22T02:16:16.944Z,7.06
2023-04-22T02:18:49.446Z,7.11
2023-04-22T02:21:22.371Z,7.08
2023-04-22T02:23:54.971Z,7.02
2023-04-22T02:26:27.669Z,6.99
2023-04-22T02:29:00.485Z,6.99
2023-04-22T02:31:33.196Z,7.05
2023-04-22T02:34:06.977Z,7.00
2023-04-22T02:36:39.931Z,6.94
2023-04-22T02:39:12.699Z,6.93
2023-04-22T02:41:45.981Z,6.92
2023-04-22T02:44:18.468Z,6.90
2023-04-22T02:46:51.391Z,6.86
2023-04-22T02:49:23.900Z,6.83
2023-04-22T02:51:56.820Z,6.81
2023-04-22T02:54:29.649Z,6.77
2023-04-22T02:57:03.206Z,6.76
2023-04-22T02:59:36.400Z,6.73
2023-04-22T03:02:11.038Z,6.72
2023-04-22T03:05:06.548Z,6.70
2023-04-22T03:07:39.392Z,6.67
2023-04-22T03:10:16.042Z,6.59
2023-04-22T03:12:49.584Z,6.58
2023-04-22T03:15:22.277Z,6.56
2023-04-22T03:17:55.262Z,6.56
2023-04-22T03:20:28.448Z,6.54
2023-04-22T03:23:01.487Z,6.50
2023-04-22T03:25:34.039Z,6.49
2023-04-22T03:28:10.196Z,6.45
2023-04-22T03:30:43.275Z,6.44
2023-04-22T03:33:16.157Z,6.43
2023-04-22T03:35:56.179Z,6.41
2023-04-22T03:38:30.063Z,6.40
2023-04-22T03:41:02.950Z,6.40
2023-04-22T03:43:44.993Z,6.40
2023-04-22T03:46:17.951Z,6.38
2023-04-22T03:48:58.043Z,6.38
2023-04-22T03:51:34.860Z,6.37
2023-04-22T03:54:10.685Z,6.36
2023-04-22T03:56:46.862Z,6.37
2023-04-22T03:59:20.039Z,6.37
2023-04-22T04:01:55.369Z,6.37
2023-04-22T04:04:31.590Z,6.38
2023-04-22T04:07:06.071Z,6.42
2023-04-22T04:09:39.012Z,6.47
2023-04-22T04:12:12.343Z,6.52
2023-04-22T04:14:48.279Z,6.55
2023-04-22T04:17:26.191Z,6.60
2023-04-22T04:19:59.462Z,6.65
2023-04-22T04:22:32.125Z,6.71
2023-04-22T04:25:05.831Z,6.75
2023-04-22T04:27:42.706Z,6.82
2023-04-22T04:30:18.240Z,6.89
2023-04-22T04:32:58.170Z,6.97
2023-04-22T04:35:34.822Z,7.05
2023-04-22T04:38:07.806Z,7.13
2023-04-22T04:40:45.926Z,7.22
2023-04-22T04:43:29.861Z,7.32
2023-04-22T04:46:10.058Z,7.39
2023-04-22T04:48:44.258Z,7.46
2023-04-22T04:51:20.070Z,7.56
2023-04-22T04:53:59.973Z,7.64
2023-04-22T04:56:36.657Z,7.75
2023-04-22T04:59:09.866Z,7.87
2023-04-22T05:01:43.877Z,8.01
2023-04-22T05:04:17.813Z,8.14
2023-04-22T05:06:50.977Z,8.30
2023-04-22T05:09:23.730Z,8.50
2023-04-22T05:12:06.873Z,8.75
2023-04-22T05:14:41.162Z,9.00
2023-04-22T05:17:14.892Z,9.21
2023-04-22T05:19:47.670Z,9.44
2023-04-22T05:22:21.252Z,9.67
2023-04-22T05:24:54.064Z,9.91
2023-04-22T05:27:27.326Z,10.07
2023-04-22T05:30:00.653Z,10.18
2023-04-22T05:32:35.697Z,10.32
2023-04-22T05:35:09.218Z,10.48
2023-04-22T05:37:42.804Z,10.65
2023-04-22T05:40:16.330Z,10.82
2023-04-22T05:42:49.224Z,10.93
2023-04-22T05:45:22.162Z,11.11
2023-04-22T05:47:56.203Z,11.34
2023-04-22T05:50:30.365Z,11.56
2023-04-22T05:53:09.653Z,11.78
2023-04-22T05:55:42.734Z,12.03
2023-04-22T05:58:17.184Z,12.30
2023-04-22T06:00:56.773Z,12.64
2023-04-22T06:03:48.757Z,12.95
2023-04-22T06:06:22.270Z,13.17
2023-04-22T06:08:55.382Z,13.28
2023-04-22T06:11:30.907Z,13.36
2023-04-22T06:14:03.978Z,13.54
2023-04-22T06:16:41.132Z,13.74
2023-04-22T06:19:14.027Z,13.91
2023-04-22T06:21:47.110Z,14.07
2023-04-22T06:24:19.832Z,14.25
2023-04-22T06:26:52.586Z,14.38
2023-04-22T06:29:25.563Z,14.54
2023-04-22T06:32:01.710Z,14.70
2023-04-22T06:34:34.617Z,14.91
2023-04-22T06:37:07.516Z,15.11
2023-04-22T06:39:40.854Z,15.24
2023-04-22T06:42:48.470Z,15.43
2023-04-22T06:45:47.349Z,15.58
2023-04-22T06:48:27.802Z,15.76
2023-04-22T06:51:29.341Z,15.92
2023-04-22T06:54:02.558Z,16.06
2023-04-22T06:56:33.770Z,16.23
2023-04-22T06:59:08.088Z,16.36
2023-04-22T07:01:41.656Z,16.54
2023-04-22T07:04:14.464Z,16.66
2023-04-22T07:06:48.297Z,16.81
2023-04-22T07:09:21.129Z,16.95
2023-04-22T07:11:53.875Z,17.08
2023-04-22T07:14:28.772Z,17.21
2023-04-22T07:17:02.325Z,17.35
2023-04-22T07:19:34.789Z,17.45
2023-04-22T07:22:08.545Z,17.58
2023-04-22T07:24:41.625Z,17.62
2023-04-22T07:27:14.226Z,17.76
2023-04-22T07:29:47.185Z,17.87
2023-04-22T07:32:19.752Z,17.90
2023-04-22T07:34:52.728Z,17.93
2023-04-22T07:37:26.136Z,17.84
2023-04-22T07:39:58.962Z,17.97
2023-04-22T07:42:32.009Z,18.11
2023-04-22T07:45:04.519Z,18.30
2023-04-22T07:47:37.424Z,18.42
2023-04-22T07:50:12.133Z,18.41
2023-04-22T07:52:46.519Z,18.17
2023-04-22T07:55:19.487Z,18.46
2023-04-22T07:57:50.463Z,18.50
2023-04-22T08:00:23.464Z,18.66
2023-04-22T08:02:56.486Z,18.89
2023-04-22T08:05:29.119Z,18.96
2023-04-22T08:08:01.886Z,19.06
2023-04-22T08:10:34.608Z,19.19
2023-04-22T08:13:07.300Z,19.24
2023-04-22T08:15:40.455Z,19.21
2023-04-22T08:18:11.550Z,19.19
2023-04-22T08:20:47.020Z,19.16
2023-04-22T08:23:21.930Z,18.92
2023-04-22T08:25:55.254Z,18.98
2023-04-22T08:28:27.878Z,19.03
2023-04-22T08:31:00.566Z,19.02
2023-04-22T08:33:33.736Z,18.68
2023-04-22T08:36:06.694Z,18.81
2023-04-22T08:38:39.380Z,18.86
2023-04-22T08:41:12.395Z,19.00
2023-04-22T08:43:45.826Z,18.89
2023-04-22T08:46:21.796Z,18.96
2023-04-22T08:48:55.023Z,19.23
2023-04-22T08:51:28.693Z,19.52
2023-04-22T08:54:01.716Z,19.49
2023-04-22T08:56:37.351Z,19.64
2023-04-22T08:59:11.873Z,19.94
2023-04-22T09:01:45.836Z,20.04
2023-04-22T09:04:20.962Z,20.25
2023-04-22T09:06:53.820Z,20.32
2023-04-22T09:09:29.811Z,20.38
2023-04-22T09:12:03.241Z,20.24
2023-04-22T09:14:36.791Z,20.43
2023-04-22T09:17:11.192Z,20.35
2023-04-22T09:19:44.439Z,20.20
2023-04-22T09:22:20.142Z,20.32
2023-04-22T09:25:06.403Z,20.17
2023-04-22T09:27:41.088Z,19.79
2023-04-22T09:30:16.183Z,19.60
2023-04-22T09:33:00.241Z,19.57
2023-04-22T09:35:38.345Z,19.09
2023-04-22T09:38:12.440Z,19.47
2023-04-22T09:40:48.178Z,19.54
2023-04-22T09:43:22.241Z,19.22
2023-04-22T09:45:58.227Z,19.08
2023-04-22T09:48:32.193Z,19.20
2023-04-22T09:51:18.578Z,19.27
2023-04-22T09:54:01.458Z,19.23
2023-04-22T09:56:50.931Z,19.24
2023-04-22T09:59:28.490Z,19.32
2023-04-22T10:02:04.661Z,19.41
2023-04-22T10:04:37.550Z,19.69
2023-04-22T10:07:10.189Z,19.74
2023-04-22T10:09:43.629Z,19.41
2023-04-22T10:12:25.946Z,19.44
2023-04-22T10:15:02.185Z,19.53
2023-04-22T10:17:37.849Z,19.89
2023-04-22T10:20:19.041Z,20.09
2023-04-22T10:22:54.129Z,20.27
2023-04-22T10:25:28.119Z,20.17
2023-04-22T10:28:06.220Z,19.68
2023-04-22T10:30:41.046Z,19.35
2023-04-22T10:33:40.616Z,19.30
2023-04-22T10:36:18.565Z,19.26
2023-04-22T10:39:22.450Z,19.56
2023-04-22T10:41:57.361Z,19.51
2023-04-22T10:44:48.286Z,19.52
2023-04-22T10:47:38.567Z,19.68
2023-04-22T10:50:16.093Z,19.34
2023-04-22T10:52:50.836Z,19.38
2023-04-22T10:55:24.118Z,19.28
2023-04-22T10:57:57.798Z,19.37
2023-04-22T11:00:52.421Z,19.48
2023-04-22T11:03:31.729Z,19.47
2023-04-22T11:06:22.907Z,19.52
2023-04-22T11:09:13.314Z,19.59
2023-04-22T11:11:48.425Z,19.84
2023-04-22T11:14:23.339Z,20.20
2023-04-22T11:16:56.880Z,20.46
2023-04-22T11:19:32.090Z,20.62
2023-04-22T11:22:04.878Z,20.27
2023-04-22T11:24:37.722Z,20.25
2023-04-22T11:29:30.361Z,20.49
2023-04-22T11:32:45.436Z,20.66
2023-04-22T11:35:20.279Z,20.67
2023-04-22T11:37:56.251Z,20.52
2023-04-22T11:40:33.186Z,20.11
2023-04-22T11:43:09.683Z,19.91
2023-04-22T11:45:43.081Z,20.15
2023-04-22T11:48:16.962Z,20.10
2023-04-22T11:50:49.551Z,19.53
2023-04-22T11:53:24.482Z,19.21
2023-04-22T11:55:57.279Z,19.29
2023-04-22T11:58:30.719Z,19.35
2023-04-22T12:01:03.712Z,19.28
2023-04-22T12:03:36.191Z,19.58
2023-04-22T12:06:09.411Z,19.28
2023-04-22T12:08:44.816Z,19.40
2023-04-22T12:11:17.857Z,19.61
2023-04-22T12:13:51.657Z,19.59
2023-04-22T12:16:24.918Z,19.14
2023-04-22T12:18:56.772Z,19.18
2023-04-22T12:21:32.580Z,18.86
2023-04-22T12:24:12.089Z,18.99
2023-04-22T12:26:45.920Z,19.20
2023-04-22T12:29:18.843Z,19.42
2023-04-22T12:31:51.970Z,19.47
2023-04-22T12:34:22.940Z,19.59
2023-04-22T12:36:56.738Z,19.77
2023-04-22T12:39:29.576Z,19.90
2023-04-22T12:42:02.618Z,19.85
2023-04-22T12:44:35.350Z,19.57
2023-04-22T12:47:08.051Z,19.10
2023-04-22T12:49:41.237Z,19.35
2023-04-22T12:52:14.211Z,19.45
2023-04-22T12:54:47.125Z,19.63
2023-04-22T12:57:19.953Z,19.98
2023-04-22T12:59:52.523Z,20.19
2023-04-22T13:02:25.813Z,19.92
2023-04-22T13:04:58.769Z,19.74
2023-04-22T13:07:31.388Z,19.89
2023-04-22T13:10:04.092Z,19.75
2023-04-22T13:12:38.527Z,19.82
2023-04-22T13:15:13.157Z,20.00
2023-04-22T13:17:47.590Z,20.18
2023-04-22T13:20:21.392Z,20.18
2023-04-22T13:22:53.937Z,20.02
2023-04-22T13:25:26.833Z,20.10
2023-04-22T13:27:59.465Z,20.25
2023-04-22T13:30:32.816Z,20.29
2023-04-22T13:33:05.357Z,20.19
2023-04-22T13:35:39.971Z,20.08
2023-04-22T13:38:12.715Z,19.88
2023-04-22T13:40:45.588Z,19.59
2023-04-22T13:43:18.682Z,19.51
2023-04-22T13:45:49.610Z,19.71
2023-04-22T13:48:22.317Z,19.93
2023-04-22T13:50:55.221Z,20.13
2023-04-22T13:53:28.248Z,20.18
2023-04-22T13:55:59.243Z,20.22
2023-04-22T13:58:32.710Z,20.34
2023-04-22T14:01:08.472Z,20.37
2023-04-22T14:03:41.295Z,20.07
2023-04-22T14:06:14.401Z,20.12
2023-04-22T14:08:45.398Z,20.29
2023-04-22T14:11:18.330Z,20.35
2023-04-22T14:13:49.411Z,20.27
2023-04-22T14:16:22.529Z,20.34
2023-04-22T14:18:56.212Z,20.45
2023-04-22T14:21:30.182Z,20.52
2023-04-22T14:24:03.872Z,20.33
2023-04-22T14:26:36.584Z,20.26
2023-04-22T14:29:08.971Z,20.10
2023-04-22T14:31:42.518Z,19.98
2023-04-22T14:34:16.723Z,19.93
2023-04-22T14:36:50.052Z,20.05
2023-04-22T14:39:22.981Z,20.10
2023-04-22T14:41:57.729Z,20.10
2023-04-22T14:44:30.219Z,19.92
2023-04-22T14:47:01.551Z,19.73
2023-04-22T14:49:35.339Z,19.72
2023-04-22T14:52:09.331Z,19.73
2023-04-22T14:54:41.868Z,19.70
2023-04-22T14:57:14.900Z,19.71
2023-04-22T14:59:47.355Z,19.41
2023-04-22T15:02:20.666Z,19.44
2023-04-22T15:04:53.639Z,19.54
2023-04-22T15:07:31.022Z,19.73
2023-04-22T15:10:04.764Z,19.53
2023-04-22T15:12:36.234Z,19.30
2023-04-22T15:15:10.752Z,19.29
2023-04-22T15:17:44.142Z,19.29
2023-04-22T15:20:17.487Z,19.21
2023-04-22T15:22:52.602Z,19.25
2023-04-22T15:25:27.707Z,19.20
2023-04-22T15:28:02.118Z,19.02
2023-04-22T15:30:34.948Z,19.19
2023-04-22T15:51:34.213Z,19.50
2023-04-22T15:54:09.009Z,19.42
2023-04-22T15:56:41.928Z,19.35
2023-04-22T15:59:16.215Z,19.45
2023-04-22T16:01:49.783Z,19.40
2023-04-22T16:04:25.621Z,19.11
2023-04-22T16:07:01.202Z,19.14
2023-04-22T16:09:33.800Z,19.24
2023-04-22T16:12:08.309Z,19.19
2023-04-22T16:14:42.220Z,19.05
2023-04-22T16:17:16.019Z,18.77
2023-04-22T16:19:48.850Z,18.69
2023-04-22T16:22:21.547Z,18.71
2023-04-22T16:24:54.222Z,18.71
2023-04-22T16:27:27.885Z,18.77
2023-04-22T16:30:00.781Z,18.82
2023-04-22T16:32:33.861Z,18.83
2023-04-22T16:35:07.518Z,18.71
2023-04-22T16:37:42.180Z,18.60
2023-04-22T16:40:15.387Z,18.66
2023-04-22T16:42:50.488Z,18.59
2023-04-22T16:45:24.640Z,18.31
2023-04-22T16:47:57.558Z,18.09
2023-04-22T16:50:28.479Z,18.07
2023-04-22T16:53:01.201Z,17.88
2023-04-22T16:55:35.086Z,18.00
2023-04-22T16:58:09.951Z,17.93
2023-04-22T17:00:43.138Z,17.92
2023-04-22T17:03:17.766Z,17.74
2023-04-22T17:05:50.737Z,17.59
2023-04-22T17:08:23.577Z,17.49
2023-04-22T17:10:56.624Z,17.37
2023-04-22T17:13:32.419Z,17.25
2023-04-22T17:16:05.973Z,17.14
2023-04-22T17:18:36.701Z,17.09
2023-04-22T17:27:44.373Z,17.33
2023-04-22T17:30:18.380Z,16.89
2023-04-22T17:32:52.612Z,16.48
2023-04-22T17:35:25.614Z,16.34
2023-04-22T17:37:58.505Z,16.17
2023-04-22T17:40:31.461Z,16.05
2023-04-22T17:43:05.532Z,15.90
2023-04-22T17:45:38.353Z,15.83
2023-04-22T17:48:12.477Z,15.74
2023-04-22T17:50:45.004Z,15.65
2023-04-22T17:53:19.554Z,15.53
2023-04-22T17:55:53.824Z,15.36
2023-04-22T17:58:27.456Z,15.20
2023-04-22T18:01:00.243Z,15.03
2023-04-22T18:03:33.206Z,14.91
2023-04-22T18:06:06.052Z,14.72
2023-04-22T18:08:39.334Z,14.54
2023-04-22T18:11:10.123Z,14.42
2023-04-22T18:13:42.732Z,14.22
2023-04-22T18:16:15.653Z,14.16
2023-04-22T18:18:48.684Z,14.08
2023-04-22T18:21:21.820Z,13.99
2023-04-22T18:23:54.482Z,13.95
2023-04-22T18:26:27.264Z,13.89
2023-04-22T18:29:00.501Z,13.85
2023-04-22T18:31:34.522Z,13.74
2023-04-22T18:34:14.219Z,13.60
2023-04-22T18:36:48.012Z,13.49
2023-04-22T18:39:21.828Z,13.40
2023-04-22T18:41:55.141Z,13.31
2023-04-22T18:44:28.514Z,13.24
2023-04-22T18:47:01.639Z,13.12
2023-04-22T18:49:35.211Z,12.92
2023-04-22T18:52:07.849Z,12.86
2023-04-22T18:55:05.876Z,13.00
2023-04-22T18:57:38.552Z,12.96
2023-04-22T19:00:14.939Z,12.87
2023-04-22T19:02:48.137Z,12.79
2023-04-22T19:05:19.173Z,12.69
2023-04-22T19:07:51.799Z,12.56
2023-04-22T19:10:27.386Z,12.53
2023-04-22T19:13:01.817Z,12.44
2023-04-22T19:15:34.912Z,12.38
2023-04-22T19:18:08.024Z,12.31
2023-04-22T19:20:40.582Z,12.20
2023-04-22T19:23:13.587Z,12.14
2023-04-22T19:25:46.248Z,12.04
2023-04-22T19:28:19.164Z,11.92
2023-04-22T19:30:54.334Z,11.79
2023-04-22T19:33:27.577Z,11.70
2023-04-22T19:36:02.071Z,11.64
2023-04-22T19:38:36.102Z,11.56
2023-04-22T19:41:30.430Z,11.54
2023-04-22T19:44:18.976Z,11.48
2023-04-22T19:46:52.603Z,11.43
2023-04-22T19:49:28.205Z,11.38
2023-04-22T19:52:03.493Z,11.32
2023-04-22T19:54:39.368Z,11.27
2023-04-22T19:57:14.795Z,11.23
2023-04-22T19:59:48.823Z,11.13
2023-04-22T20:02:23.401Z,11.05
2023-04-22T20:04:58.548Z,10.87
2023-04-22T20:07:34.349Z,10.68
2023-04-22T20:10:09.673Z,10.64
2023-04-22T20:12:47.214Z,10.53
2023-04-22T20:15:20.998Z,10.47
2023-04-22T20:17:55.626Z,10.39
2023-04-22T20:20:31.409Z,10.30
2023-04-22T20:23:10.769Z,10.30
2023-04-22T20:25:46.215Z,10.38
2023-04-22T20:28:19.377Z,10.48
2023-04-22T20:30:52.799Z,10.48
2023-04-22T20:33:25.608Z,10.45
2023-04-22T20:35:59.281Z,10.45
2023-04-22T20:38:37.299Z,10.46
2023-04-22T20:41:19.880Z,10.47
2023-04-22T20:43:56.182Z,10.50
2023-04-22T20:46:28.766Z,10.46
2023-04-22T20:49:02.190Z,10.49
2023-04-22T20:51:35.668Z,10.48
2023-04-22T20:54:17.805Z,10.47
2023-04-22T20:56:54.153Z,10.49
2023-04-22T20:59:27.185Z,10.56
2023-04-22T21:02:00.985Z,10.58
2023-04-22T21:04:36.578Z,10.69
2023-04-22T21:07:12.748Z,10.68
2023-04-22T21:09:46.066Z,10.68
2023-04-22T21:12:19.647Z,10.74
2023-04-22T21:14:53.215Z,10.74
2023-04-22T21:17:31.865Z,10.94
2023-04-22T21:20:09.583Z,11.05
2023-04-22T21:22:45.743Z,11.24
2023-04-22T21:25:22.868Z,11.29
2023-04-22T21:27:56.614Z,11.29
2023-04-22T21:30:30.372Z,11.24
2023-04-22T21:33:03.011Z,11.23
2023-04-22T21:35:36.076Z,11.33
2023-04-22T21:38:09.338Z,11.43
2023-04-22T21:40:41.848Z,11.44
2023-04-22T21:43:14.652Z,11.41
2023-04-22T21:45:47.400Z,11.42
2023-04-22T21:48:20.234Z,11.38
2023-04-22T21:50:53.299Z,11.34
2023-04-22T21:53:25.977Z,11.33
2023-04-22T21:55:58.857Z,11.31
2023-04-22T21:58:31.519Z,11.34
2023-04-22T22:01:04.023Z,11.32
2023-04-22T22:03:37.292Z,11.38
2023-04-22T22:06:10.464Z,11.27
2023-04-22T22:08:45.428Z,11.18
2023-04-22T22:11:29.822Z,11.17
2023-04-22T22:14:03.948Z,11.12
2023-04-22T22:16:36.363Z,11.06
2023-04-22T22:19:11.486Z,11.08
2023-04-22T22:21:43.918Z,10.95
2023-04-22T22:24:18.252Z,10.86
2023-04-22T22:26:51.112Z,10.69
2023-04-22T22:29:23.816Z,10.56
2023-04-22T22:31:56.232Z,10.52
2023-04-22T22:34:29.677Z,10.44
2023-04-22T22:37:00.570Z,10.54
2023-04-22T22:39:36.186Z,10.42
2023-04-22T22:42:08.900Z,10.34
2023-04-22T22:44:41.968Z,10.32
2023-04-22T22:47:13.345Z,10.29
2023-04-22T22:49:46.218Z,10.30
2023-04-22T22:52:18.777Z,10.34
2023-04-22T22:54:51.854Z,10.35
2023-04-22T22:57:25.099Z,10.51
2023-04-22T22:59:57.768Z,10.49
2023-04-22T23:02:30.617Z,10.31
2023-04-22T23:05:05.579Z,10.24
2023-04-22T23:07:38.181Z,10.14
2023-04-22T23:10:13.791Z,10.07
2023-04-22T23:12:46.915Z,10.00
2023-04-22T23:15:19.682Z,10.00
2023-04-22T23:17:54.733Z,10.03
2023-04-22T23:20:28.822Z,9.94
2023-04-22T23:23:02.912Z,9.94
2023-04-22T23:25:37.014Z,9.99
2023-04-22T23:28:10.743Z,10.02
2023-04-22T23:30:44.364Z,10.04
2023-04-22T23:33:18.007Z,10.00
2023-04-22T23:35:50.399Z,10.13
2023-04-22T23:38:22.913Z,10.08
2023-04-22T23:40:55.526Z,10.08
2023-04-22T23:43:27.943Z,10.12
2023-04-22T23:46:03.267Z,10.09
2023-04-22T23:48:36.499Z,10.01
2023-04-22T23:51:09.542Z,9.92
2023-04-22T23:53:42.274Z,9.87
2023-04-22T23:56:20.632Z,9.78
2023-04-22T23:58:54.480Z,9.69
